Huvudsida
METAR-TAF:

METAR-TAF

Flygplatser :

Warszawa-Frédéric Chopins flygplats

Warszawa, Polen

latitud: 52-10N, longitud: 020-58E, höjd: 106 m

Aktuellt väderrapport

Denna rapport gjordes för 10 minuter sedan, klockan 12:30 UTC
Vind 6 kt från ost/sydost, varierande mellan ost och syd/sydost
Temperatur 24°C
Fuktighet 41%
Tryck 1014 hPa
Sikt 10 km eller mer
Inga moln under 1 500 m eller inga cumulonimbus

METAR: EPWA 251230Z 11006KT 080V150 CAVOK 24/10 Q1014 NOSIG

Tid: 14:40 (12:40 UTC)

Väderprognos

Denna rapport gjordes för 1 timme och 10 minuter sedan, klockan 11:30 UTC
Prognos gäller från 25 kl. 12 UTC till 26 kl. 12 UTC
Vind 12 kt från syd
Sikt 10 km eller mer
Inga moln under 1 500 m eller inga cumulonimbus
Sannolikhet 40% :
Temporärt
från 25 kl. 13 UTC till 25 kl. 18 UTC
Brutna moln på en höjd av 3500 ft, Cumulonimbus.

TAF: EPWA 251130Z 2512/2612 17012KT CAVOK PROB40 TEMPO 2513/2518 BKN035CB

Aktuella väderrapporter och prognoser från 4000 flygplatser (METAR- och TAF-rapporter).

De tillgängliga stationerna syns som gula och röda prickar på kartan.

För musen över prickarna för att se namnen på stationerna.

Klicka sedan för att få väderrapporter och prognoser.

För att ändra kartan: Klicka på de gröna knapparna med ett svart kors på för att zooma in; den gröna knappen med ett streck på för att zooma ut; eller på de gröna pilarna för angränsande kartor.


METAR-TAF: